Time;durP1;ratioP1;P1;durP2;ratioP2;P2;SDS_P1;SDS_P2;PMS_P1;PMS_P2;Temp;Humidity;BMP_temperature;BMP_pressure;BME280_temperature;BME280_humidity;BME280_pressure;Samples;Min_cycle;Max_cycle;Signal;HPM_P1;HPM_P2
2023/09/24 00:02:01;;;;;;;8.63;3.35;;;12.70;92.10;;;;;;20529880;28;20451;-41
2023/09/24 00:12:02;;;;;;;7.10;3.70;;;12.80;88.10;;;;;;20520873;28;20419;-41
2023/09/24 00:22:04;;;;;;;7.30;3.95;;;12.70;81.10;;;;;;20514174;28;20416;-42
2023/09/24 00:32:04;;;;;;;7.38;3.85;;;12.80;66.20;;;;;;20525247;28;20039;-42
2023/09/24 00:42:07;;;;;;;8.20;4.00;;;12.70;77.40;;;;;;20538323;28;21493;-41
2023/09/24 00:52:09;;;;;;;7.70;4.22;;;12.60;90.00;;;;;;20532586;28;20134;-42
2023/09/24 01:02:10;;;;;;;7.72;3.95;;;12.70;85.20;;;;;;20534711;28;20039;-41
2023/09/24 01:12:25;;;;;;;9.55;4.28;;;12.70;53.60;;;;;;20532339;28;20149;-41
2023/09/24 01:22:28;;;;;;;7.80;4.03;;;12.60;49.00;;;;;;20522788;28;20054;-42
2023/09/24 01:32:29;;;;;;;7.13;4.13;;;12.40;46.30;;;;;;20530000;28;20043;-41
2023/09/24 01:42:29;;;;;;;11.25;4.38;;;12.30;44.50;;;;;;20533815;28;20050;-41
2023/09/24 01:52:30;;;;;;;8.50;4.68;;;12.30;36.20;;;;;;20524815;28;20051;-41
2023/09/24 02:02:33;;;;;;;7.03;3.50;;;12.20;35.90;;;;;;20524961;28;20039;-41
2023/09/24 02:12:36;;;;;;;9.15;3.80;;;12.10;33.40;;;;;;20525390;28;20046;-41
2023/09/24 02:22:36;;;;;;;6.53;4.03;;;12.00;28.20;;;;;;20517338;28;20042;-41
2023/09/24 02:33:20;;;;;;;13.00;4.53;;;11.90;18.10;;;;;;21048459;23;20112;-41
2023/09/24 02:43:22;;;;;;;8.80;5.00;;;11.80;35.90;;;;;;20653406;28;20073;-41
2023/09/24 02:53:23;;;;;;;11.07;4.85;;;11.80;26.90;;;;;;20686062;28;20042;-41
2023/09/24 03:03:24;;;;;;;9.03;4.83;;;11.80;35.00;;;;;;20673833;28;20111;-41
2023/09/24 03:13:25;;;;;;;8.85;4.78;;;11.80;38.40;;;;;;20668795;28;20038;-41
2023/09/24 03:23:26;;;;;;;13.52;4.82;;;11.70;41.90;;;;;;20678361;28;20037;-41
2023/09/24 03:33:27;;;;;;;8.13;4.38;;;11.70;29.90;;;;;;20661447;28;20163;-41
2023/09/24 03:43:28;;;;;;;10.38;5.20;;;11.60;25.80;;;;;;20576332;28;20093;-41
2023/09/24 03:53:29;;;;;;;10.45;4.95;;;11.50;29.30;;;;;;20562572;28;20125;-41
2023/09/24 04:03:30;;;;;;;11.00;5.60;;;11.50;35.00;;;;;;20565772;28;20486;-41
2023/09/24 04:13:32;;;;;;;8.63;4.68;;;11.40;36.50;;;;;;20559849;28;20097;-41
2023/09/24 04:23:33;;;;;;;12.48;5.38;;;11.40;33.30;;;;;;20561360;28;20122;-41
2023/09/24 04:33:34;;;;;;;14.33;7.00;;;11.40;43.30;;;;;;20573718;28;20510;-41
2023/09/24 04:43:35;;;;;;;13.20;6.57;;;11.40;59.60;;;;;;20561971;28;20481;-41
2023/09/24 04:53:36;;;;;;;11.50;6.13;;;11.30;68.50;;;;;;20559646;28;20045;-41
2023/09/24 05:03:37;;;;;;;11.23;6.05;;;11.10;86.00;;;;;;20557183;28;20146;-41
2023/09/24 05:13:38;;;;;;;11.57;6.97;;;11.10;65.40;;;;;;20558560;28;20113;-41
2023/09/24 05:23:39;;;;;;;14.73;7.00;;;11.10;64.20;;;;;;20566923;28;20054;-41
2023/09/24 05:33:41;;;;;;;12.57;7.18;;;11.30;34.50;;;;;;20586491;28;20070;-41
2023/09/24 05:43:44;;;;;;;13.43;8.60;;;11.10;33.50;;;;;;20575222;28;20503;-41
2023/09/24 05:53:45;;;;;;;16.73;8.93;;;11.00;45.20;;;;;;20589903;28;20046;-41
2023/09/24 06:03:45;;;;;;;13.90;8.00;;;11.00;56.20;;;;;;20599766;28;20351;-41
2023/09/24 06:13:46;;;;;;;15.68;9.65;;;10.90;47.60;;;;;;20573381;28;20043;-41
2023/09/24 06:23:46;;;;;;;13.60;7.50;;;11.00;54.10;;;;;;20565963;28;20189;-41
2023/09/24 06:33:48;;;;;;;12.33;6.53;;;11.20;33.90;;;;;;20568209;28;20054;-41
2023/09/24 06:43:48;;;;;;;12.63;6.25;;;11.10;42.30;;;;;;20588523;28;20223;-41
2023/09/24 06:53:53;;;;;;;12.02;6.88;;;11.30;36.70;;;;;;20570474;28;20116;-41
2023/09/24 07:03:54;;;;;;;8.48;5.75;;;11.20;40.50;;;;;;20570343;28;20081;-41
2023/09/24 07:13:55;;;;;;;9.55;5.43;;;11.40;28.70;;;;;;20562294;28;20046;-41
2023/09/24 07:23:56;;;;;;;9.75;5.50;;;11.50;45.20;;;;;;20565693;28;20263;-41
2023/09/24 07:33:59;;;;;;;9.57;4.88;;;11.80;29.10;;;;;;20573919;28;20049;-41
2023/09/24 07:44:00;;;;;;;6.60;3.92;;;12.20;14.20;;;;;;20569630;28;20056;-41
2023/09/24 07:54:00;;;;;;;8.60;3.60;;;12.60;1.00;;;;;;20569370;28;20038;-41
2023/09/24 08:04:01;;;;;;;8.25;3.30;;;12.90;1.00;;;;;;20554061;28;20042;-41
2023/09/24 08:14:02;;;;;;;7.53;3.05;;;13.10;1.00;;;;;;20560695;28;20042;-41
2023/09/24 08:24:03;;;;;;;5.40;2.78;;;13.60;1.00;;;;;;20570707;28;20066;-41
2023/09/24 08:34:03;;;;;;;6.38;2.20;;;14.00;1.00;;;;;;20568777;28;20043;-41
2023/09/24 08:44:06;;;;;;;18.65;3.60;;;14.50;1.00;;;;;;20570057;28;20133;-41
2023/09/24 08:54:06;;;;;;;5.35;2.50;;;14.70;1.00;;;;;;20567257;28;20046;-41
2023/09/24 09:04:07;;;;;;;3.77;1.60;;;15.30;1.00;;;;;;20579065;28;20618;-41
2023/09/24 09:14:10;;;;;;;4.77;1.30;;;15.50;1.00;;;;;;20582215;28;20469;-41
2023/09/24 09:24:25;;;;;;;7.05;1.48;;;15.80;1.00;;;;;;20579424;28;20473;-41
2023/09/24 09:34:28;;;;;;;6.10;1.48;;;15.90;1.00;;;;;;20571537;28;20101;-41
2023/09/24 09:44:28;;;;;;;4.72;1.33;;;16.30;1.00;;;;;;20595954;28;20052;-41
2023/09/24 09:54:36;;;;;;;4.80;1.25;;;16.40;1.00;;;;;;20596493;28;20043;-41
2023/09/24 10:04:38;;;;;;;6.07;1.52;;;16.70;1.00;;;;;;20597891;28;20173;-41
2023/09/24 10:14:42;;;;;;;3.28;1.20;;;16.90;1.00;;;;;;20594526;28;20438;-41
2023/09/24 10:24:43;;;;;;;5.22;1.60;;;17.10;1.00;;;;;;20593379;28;20112;-41
2023/09/24 10:34:56;;;;;;;5.60;1.38;;;17.30;1.00;;;;;;20590693;28;20066;-41
2023/09/24 10:45:10;;;;;;;4.53;1.20;;;17.60;1.00;;;;;;20593953;28;20054;-41
2023/09/24 10:55:11;;;;;;;4.25;1.40;;;18.00;1.00;;;;;;20593982;28;20038;-41
2023/09/24 11:05:12;;;;;;;4.40;1.30;;;18.30;1.00;;;;;;20576371;28;20101;-41
2023/09/24 11:15:12;;;;;;;4.40;1.17;;;18.70;1.00;;;;;;20568407;28;20579;-41
2023/09/24 11:25:14;;;;;;;4.75;1.23;;;18.60;1.00;;;;;;20567916;28;20057;-41
2023/09/24 11:35:19;;;;;;;8.50;3.90;;;18.70;1.00;;;;;;20564266;28;20046;-41
2023/09/24 11:45:42;;;;;;;4.03;1.20;;;19.60;1.00;;;;;;20577522;28;20584;-41
2023/09/24 11:55:43;;;;;;;5.47;1.92;;;20.20;1.00;;;;;;20568880;28;20145;-41
2023/09/24 12:05:46;;;;;;;2.45;0.88;;;20.30;1.00;;;;;;20565919;28;20042;-41
2023/09/24 12:15:47;;;;;;;3.90;1.17;;;20.50;1.00;;;;;;20570281;28;20042;-41
2023/09/24 12:25:48;;;;;;;2.78;1.13;;;21.10;1.00;;;;;;20573179;28;20145;-41
2023/09/24 12:35:49;;;;;;;3.85;1.20;;;21.40;1.00;;;;;;20565812;28;20046;-41
2023/09/24 12:45:50;;;;;;;4.25;1.15;;;21.40;1.00;;;;;;20572905;28;20080;-41
2023/09/24 12:55:50;;;;;;;3.28;1.00;;;21.50;1.00;;;;;;20580712;28;20081;-41
2023/09/24 13:05:51;;;;;;;4.18;1.10;;;21.60;1.00;;;;;;20572910;28;20086;-41
2023/09/24 13:15:51;;;;;;;4.43;1.17;;;21.50;1.00;;;;;;20576393;28;20034;-41
2023/09/24 13:25:52;;;;;;;3.03;1.15;;;21.60;1.00;;;;;;20572501;28;20094;-41
2023/09/24 13:35:52;;;;;;;3.17;0.80;;;21.80;1.00;;;;;;20549477;28;20116;-41
2023/09/24 13:45:53;;;;;;;5.45;0.95;;;21.80;1.00;;;;;;20551242;28;20564;-41
2023/09/24 13:55:54;;;;;;;4.32;1.33;;;21.90;1.00;;;;;;20566864;28;20058;-41
2023/09/24 14:05:59;;;;;;;2.70;1.03;;;22.00;1.00;;;;;;20564446;28;20046;-41
2023/09/24 14:16:00;;;;;;;5.15;1.10;;;21.90;1.00;;;;;;20564114;28;20035;-41
2023/09/24 14:26:01;;;;;;;2.60;1.00;;;21.90;1.00;;;;;;20562464;28;20209;-41
2023/09/24 14:36:02;;;;;;;4.10;1.00;;;21.50;1.00;;;;;;20564067;28;20042;-41
2023/09/24 14:46:03;;;;;;;2.05;0.80;;;21.40;1.00;;;;;;20582927;28;20463;-41
2023/09/24 14:56:04;;;;;;;2.83;1.20;;;21.30;1.00;;;;;;20572079;28;20042;-41
2023/09/24 15:06:04;;;;;;;3.55;1.45;;;21.30;1.00;;;;;;20569185;28;20042;-41
2023/09/24 15:16:06;;;;;;;3.15;0.93;;;21.10;1.00;;;;;;20573330;28;20137;-41
2023/09/24 15:26:06;;;;;;;2.95;0.85;;;20.90;1.00;;;;;;20565956;28;20057;-41
2023/09/24 15:36:07;;;;;;;4.20;1.50;;;20.70;1.00;;;;;;20565904;28;20549;-41
2023/09/24 15:46:15;;;;;;;3.25;0.77;;;20.50;1.00;;;;;;20562258;28;20733;-41
2023/09/24 15:56:16;;;;;;;2.78;1.02;;;20.40;1.00;;;;;;20558344;28;20641;-41
2023/09/24 16:06:16;;;;;;;2.35;0.82;;;20.30;1.00;;;;;;20561364;28;20057;-41
2023/09/24 16:16:17;;;;;;;2.70;1.20;;;20.10;1.00;;;;;;20574024;28;20581;-41
2023/09/24 16:26:19;;;;;;;2.33;1.10;;;19.90;1.00;;;;;;20559453;28;20050;-41
2023/09/24 16:36:19;;;;;;;3.85;1.20;;;19.70;1.00;;;;;;20576708;28;20524;-41
2023/09/24 16:46:20;;;;;;;2.90;1.10;;;19.50;1.00;;;;;;20579662;28;20782;-41
2023/09/24 16:56:21;;;;;;;2.90;1.37;;;19.30;1.00;;;;;;20573917;28;20608;-41
2023/09/24 17:06:23;;;;;;;5.22;1.70;;;19.40;1.00;;;;;;20566044;28;20456;-41
2023/09/24 17:16:23;;;;;;;3.67;1.40;;;19.10;1.00;;;;;;20571333;28;20034;-41
2023/09/24 17:26:25;;;;;;;3.33;1.48;;;18.90;1.00;;;;;;20583147;28;20044;-41
2023/09/24 17:36:26;;;;;;;3.25;1.60;;;18.80;1.00;;;;;;20575145;28;20153;-41
2023/09/24 17:46:26;;;;;;;4.80;1.20;;;18.60;1.00;;;;;;20580753;28;20588;-41
2023/09/24 17:56:27;;;;;;;2.92;1.20;;;18.40;1.00;;;;;;20574782;28;20113;-42
2023/09/24 18:06:27;;;;;;;4.07;1.63;;;18.30;1.00;;;;;;20581423;28;20050;-42
2023/09/24 18:16:28;;;;;;;3.60;1.30;;;18.10;1.00;;;;;;20574290;28;20351;-42
2023/09/24 18:26:29;;;;;;;3.60;1.52;;;17.90;1.00;;;;;;20569632;28;20510;-42
2023/09/24 18:36:29;;;;;;;3.13;1.33;;;17.60;1.00;;;;;;20580548;28;20050;-42
2023/09/24 18:46:30;;;;;;;2.65;1.27;;;17.30;1.00;;;;;;20583831;28;20057;-42
2023/09/24 18:56:31;;;;;;;3.65;1.70;;;16.90;1.00;;;;;;20576430;28;21367;-42
2023/09/24 19:06:32;;;;;;;3.55;1.58;;;16.70;1.00;;;;;;20580061;28;20157;-42
2023/09/24 19:16:33;;;;;;;3.55;1.50;;;16.60;1.00;;;;;;20576603;28;20042;-42
2023/09/24 19:26:33;;;;;;;3.65;1.52;;;16.50;1.00;;;;;;20566014;28;20049;-42
2023/09/24 19:36:34;;;;;;;2.72;1.40;;;16.50;1.00;;;;;;20569681;28;20134;-42
2023/09/24 19:46:35;;;;;;;2.85;1.50;;;16.30;1.00;;;;;;20570304;28;20545;-42
2023/09/24 19:56:36;;;;;;;5.90;1.90;;;16.10;1.00;;;;;;20567895;28;20038;-42
2023/09/24 20:06:36;;;;;;;4.55;1.70;;;15.90;1.00;;;;;;20562138;28;20054;-41
2023/09/24 20:16:38;;;;;;;4.63;1.40;;;15.90;1.00;;;;;;20559309;28;20781;-41
2023/09/24 20:26:41;;;;;;;3.75;1.75;;;16.20;1.00;;;;;;20570522;28;20125;-41
2023/09/24 20:36:42;;;;;;;3.92;1.58;;;16.40;1.00;;;;;;20571512;28;20054;-42
2023/09/24 20:46:44;;;;;;;2.47;1.13;;;16.50;1.00;;;;;;20577481;28;20084;-41
2023/09/24 20:56:44;;;;;;;2.63;1.20;;;16.60;1.00;;;;;;20570575;28;20042;-41
2023/09/24 21:06:45;;;;;;;3.80;1.10;;;16.80;1.00;;;;;;20585009;28;20046;-41
2023/09/24 21:16:46;;;;;;;3.33;1.40;;;16.80;1.00;;;;;;20583383;28;20129;-41
2023/09/24 21:26:46;;;;;;;3.80;1.38;;;16.70;1.00;;;;;;20573627;28;20493;-41
2023/09/24 21:36:47;;;;;;;5.43;1.48;;;16.60;1.00;;;;;;20575677;28;20058;-41
2023/09/24 21:46:48;;;;;;;5.18;1.30;;;16.60;1.00;;;;;;20577936;28;20068;-40
2023/09/24 21:56:48;;;;;;;2.97;1.30;;;16.50;1.00;;;;;;20576037;28;20518;-40
2023/09/24 22:06:49;;;;;;;4.63;1.20;;;16.40;1.00;;;;;;20577768;28;20046;-40
2023/09/24 22:16:51;;;;;;;3.47;1.60;;;16.40;1.00;;;;;;20587463;28;20041;-41
2023/09/24 22:26:51;;;;;;;3.22;1.60;;;16.20;1.00;;;;;;20583547;28;20608;-41
2023/09/24 22:36:52;;;;;;;4.18;1.52;;;16.10;1.00;;;;;;20585690;28;20050;-40
2023/09/24 22:46:52;;;;;;;3.78;1.60;;;16.10;1.00;;;;;;20582616;28;20050;-41
2023/09/24 22:56:53;;;;;;;2.60;1.27;;;16.10;1.00;;;;;;20577394;28;21803;-40
2023/09/24 23:06:54;;;;;;;3.28;1.50;;;15.80;1.00;;;;;;20580117;28;20038;-40
2023/09/24 23:16:54;;;;;;;3.47;1.50;;;15.90;1.00;;;;;;20581155;28;20038;-40
2023/09/24 23:26:56;;;;;;;7.93;3.63;;;15.70;1.00;;;;;;20580262;28;20589;-41
2023/09/24 23:36:59;;;;;;;6.28;3.03;;;15.70;1.00;;;;;;20578763;28;20543;-41
2023/09/24 23:46:59;;;;;;;3.42;1.80;;;15.70;1.00;;;;;;20581423;28;20100;-41
2023/09/24 23:57:00;;;;;;;4.70;1.83;;;15.60;1.00;;;;;;20580162;28;20035;-41
